createdAt,value
2022-08-12T00:00:36.213Z,5.30
2022-08-12T00:03:21.854Z,5.38
2022-08-12T00:06:08.805Z,5.22
2022-08-12T00:08:56.280Z,5.15
2022-08-12T00:11:45.415Z,5.40
2022-08-12T00:14:32.054Z,5.18
2022-08-12T00:17:17.937Z,5.90
2022-08-12T00:20:04.582Z,5.35
2022-08-12T00:22:59.265Z,5.63
2022-08-12T00:26:20.476Z,5.60
2022-08-12T00:29:01.801Z,5.32
2022-08-12T00:31:47.308Z,4.90
2022-08-12T00:34:34.772Z,5.65
2022-08-12T00:37:20.891Z,5.50
2022-08-12T00:40:11.073Z,5.40
2022-08-12T00:42:41.999Z,5.22
2022-08-12T00:45:15.468Z,5.55
2022-08-12T00:47:46.812Z,5.07
2022-08-12T00:50:18.959Z,5.28
2022-08-12T00:52:50.157Z,4.82
2022-08-12T00:55:19.263Z,5.10
2022-08-12T00:57:49.670Z,5.00
2022-08-12T01:00:25.149Z,5.70
2022-08-12T01:02:57.612Z,5.65
2022-08-12T01:05:45.470Z,5.15
2022-08-12T01:08:31.540Z,5.60
2022-08-12T01:11:25.444Z,5.75
2022-08-12T01:13:54.243Z,5.30
2022-08-12T01:16:22.916Z,5.43
2022-08-12T01:18:55.754Z,5.43
2022-08-12T01:21:41.845Z,5.47
2022-08-12T01:24:30.285Z,6.38
2022-08-12T01:26:56.661Z,6.47
2022-08-12T01:29:34.614Z,6.57
2022-08-12T01:32:08.894Z,6.20
2022-08-12T01:34:38.677Z,6.35
2022-08-12T01:37:08.438Z,5.65
2022-08-12T01:40:34.370Z,6.40
2022-08-12T01:42:41.921Z,5.90
2022-08-12T01:45:12.393Z,5.72
2022-08-12T01:48:05.073Z,5.72
2022-08-12T01:50:49.442Z,5.70
2022-08-12T01:53:20.677Z,5.68
2022-08-12T01:55:48.093Z,5.93
2022-08-12T01:58:17.269Z,6.25
2022-08-12T02:00:59.163Z,5.82
2022-08-12T02:04:20.760Z,5.72
2022-08-12T02:07:19.148Z,6.60
2022-08-12T02:10:50.196Z,5.60
2022-08-12T02:13:48.865Z,6.20
2022-08-12T02:16:47.557Z,6.18
2022-08-12T02:19:47.102Z,6.10
2022-08-12T02:22:38.515Z,6.13
2022-08-12T02:25:19.451Z,6.30
2022-08-12T02:27:52.639Z,6.20
2022-08-12T02:30:33.237Z,6.30
2022-08-12T02:33:10.789Z,6.05
2022-08-12T02:35:39.683Z,6.15
2022-08-12T02:38:10.090Z,6.45
2022-08-12T02:40:42.940Z,6.72
2022-08-12T02:43:27.756Z,6.22
2022-08-12T02:46:01.092Z,5.78
2022-08-12T02:48:51.680Z,5.97
2022-08-12T02:51:40.182Z,6.28
2022-08-12T02:54:08.200Z,6.07
2022-08-12T02:56:40.890Z,6.05
2022-08-12T02:59:11.341Z,5.97
2022-08-12T03:01:54.186Z,6.30
2022-08-12T03:04:29.976Z,6.10
2022-08-12T03:07:09.811Z,6.10
2022-08-12T03:10:05.401Z,6.18
2022-08-12T03:12:48.937Z,6.03
2022-08-12T03:15:22.125Z,6.13
2022-08-12T03:18:26.962Z,6.32
2022-08-12T03:21:01.206Z,6.22
2022-08-12T03:23:31.268Z,6.28
2022-08-12T03:26:03.200Z,6.30
2022-08-12T03:28:51.892Z,6.25
2022-08-12T03:31:32.351Z,6.55
2022-08-12T03:34:12.685Z,7.13
2022-08-12T03:36:42.508Z,6.70
2022-08-12T03:39:35.795Z,6.43
2022-08-12T03:42:28.240Z,6.30
2022-08-12T03:45:27.802Z,6.40
2022-08-12T03:48:19.233Z,6.63
2022-08-12T03:51:06.893Z,6.72
2022-08-12T03:53:53.360Z,6.65
2022-08-12T03:56:39.325Z,6.80
2022-08-12T03:59:28.107Z,7.03
2022-08-12T04:01:58.559Z,6.68
2022-08-12T04:04:28.015Z,7.20
2022-08-12T04:06:55.769Z,6.97
2022-08-12T04:09:23.641Z,6.85
2022-08-12T04:12:09.470Z,6.65
2022-08-12T04:14:36.997Z,6.93
2022-08-12T04:17:05.422Z,7.35
2022-08-12T04:19:33.400Z,6.68
2022-08-12T04:22:03.493Z,6.82
2022-08-12T04:24:36.222Z,7.53
2022-08-12T04:27:08.517Z,7.78
2022-08-12T04:30:31.656Z,6.93
2022-08-12T04:32:25.675Z,7.03
2022-08-12T04:34:54.131Z,7.22
2022-08-12T04:37:21.041Z,6.80
2022-08-12T04:39:50.165Z,6.97
2022-08-12T04:42:17.117Z,6.57
2022-08-12T04:44:44.536Z,7.00
2022-08-12T04:47:14.402Z,7.13
2022-08-12T04:49:48.439Z,7.25
2022-08-12T04:52:15.970Z,6.50
2022-08-12T04:54:44.259Z,6.68
2022-08-12T04:57:11.579Z,6.15
2022-08-12T04:59:47.074Z,7.30
2022-08-12T05:02:20.532Z,6.68
2022-08-12T05:04:51.944Z,6.55
2022-08-12T05:07:20.479Z,7.13
2022-08-12T05:10:01.132Z,7.22
2022-08-12T05:12:43.145Z,7.57
2022-08-12T05:15:26.710Z,6.93
2022-08-12T05:17:56.345Z,7.63
2022-08-12T05:20:27.558Z,7.25
2022-08-12T05:23:13.097Z,7.30
2022-08-12T05:25:47.531Z,7.03
2022-08-12T05:28:16.300Z,7.32
2022-08-12T05:30:44.277Z,7.18
2022-08-12T05:33:12.968Z,6.85
2022-08-12T05:35:43.466Z,7.25
2022-08-12T05:38:31.773Z,7.28
2022-08-12T05:41:00.143Z,7.22
2022-08-12T05:43:30.749Z,7.47
2022-08-12T05:45:58.154Z,7.28
2022-08-12T05:48:26.243Z,7.75
2022-08-12T05:50:53.149Z,7.10
2022-08-12T05:53:20.416Z,7.10
2022-08-12T05:55:47.303Z,6.60
2022-08-12T05:58:16.278Z,6.88
2022-08-12T06:00:43.379Z,7.05
2022-08-12T06:03:11.105Z,6.90
2022-08-12T06:05:51.957Z,7.13
2022-08-12T06:08:25.675Z,6.78
2022-08-12T06:10:53.060Z,6.38
2022-08-12T06:13:28.008Z,6.50
2022-08-12T06:15:56.107Z,6.63
2022-08-12T06:18:27.778Z,6.47
2022-08-12T06:20:59.058Z,6.75
2022-08-12T06:23:29.184Z,6.40
2022-08-12T06:26:00.280Z,6.20
2022-08-12T06:28:30.466Z,6.75
2022-08-12T06:31:24.315Z,6.32
2022-08-12T06:33:55.199Z,6.10
2022-08-12T06:36:25.253Z,6.07
2022-08-12T06:38:57.421Z,6.47
2022-08-12T06:42:02.426Z,5.82
2022-08-12T06:44:32.739Z,6.20
2022-08-12T06:47:00.111Z,5.47
2022-08-12T06:49:34.754Z,6.00
2022-08-12T06:52:01.866Z,6.05
2022-08-12T06:54:31.695Z,5.63
2022-08-12T06:57:04.780Z,5.30
2022-08-12T06:59:32.399Z,5.40
2022-08-12T07:01:59.748Z,5.60
2022-08-12T07:04:38.799Z,5.65
2022-08-12T07:07:09.437Z,5.10
2022-08-12T07:10:04.540Z,5.35
2022-08-12T07:12:28.467Z,5.80
2022-08-12T07:14:57.850Z,5.90
2022-08-12T07:17:38.038Z,5.72
2022-08-12T07:20:29.470Z,5.15
2022-08-12T07:22:59.188Z,5.40
2022-08-12T07:25:40.978Z,5.20
2022-08-12T07:30:52.717Z,5.25
2022-08-12T07:33:24.193Z,5.38
2022-08-12T07:35:54.070Z,5.00
2022-08-12T07:38:33.839Z,4.68
2022-08-12T07:41:21.872Z,5.07
2022-08-12T07:44:01.195Z,4.97
2022-08-12T07:46:43.429Z,4.50
2022-08-12T07:49:16.030Z,4.75
2022-08-12T07:51:44.419Z,5.15
2022-08-12T07:54:13.647Z,5.00
2022-08-12T07:56:42.844Z,5.03
2022-08-12T07:59:11.177Z,5.25
2022-08-12T08:01:38.980Z,4.88
2022-08-12T08:04:25.927Z,5.25
2022-08-12T08:06:53.603Z,4.85
2022-08-12T08:09:22.803Z,5.38
2022-08-12T08:12:09.192Z,4.72
2022-08-12T08:14:49.876Z,5.15
2022-08-12T08:17:18.481Z,5.32
2022-08-12T08:20:02.209Z,5.00
2022-08-12T08:22:41.302Z,4.65
2022-08-12T08:25:35.073Z,4.43
2022-08-12T08:28:02.507Z,4.53
2022-08-12T08:30:32.978Z,4.85
2022-08-12T08:33:00.184Z,4.80
2022-08-12T08:35:46.491Z,4.35
2022-08-12T08:38:32.260Z,4.55
2022-08-12T08:42:16.727Z,4.32
2022-08-12T08:44:11.452Z,4.22
2022-08-12T08:46:39.940Z,4.40
2022-08-12T08:49:07.367Z,4.20
2022-08-12T08:51:34.536Z,4.15
2022-08-12T08:54:01.474Z,4.20
2022-08-12T08:56:30.004Z,4.07
2022-08-12T08:59:00.645Z,4.63
2022-08-12T09:01:37.295Z,3.83
2022-08-12T09:05:08.434Z,3.97
2022-08-12T09:07:00.250Z,4.07
2022-08-12T09:10:02.127Z,4.23
2022-08-12T09:12:54.784Z,4.20
2022-08-12T09:15:34.978Z,3.85
2022-08-12T09:18:05.969Z,4.40
2022-08-12T09:20:37.194Z,4.10
2022-08-12T09:26:04.275Z,4.40
2022-08-12T09:28:33.012Z,4.13
2022-08-12T09:31:00.379Z,4.25
2022-08-12T09:34:27.729Z,4.22
2022-08-12T09:36:31.112Z,4.55
2022-08-12T09:40:01.762Z,4.72
2022-08-12T09:42:42.985Z,5.22
2022-08-12T09:45:23.253Z,4.10
2022-08-12T09:47:56.906Z,4.05
2022-08-12T09:50:29.911Z,4.20
2022-08-12T09:53:15.286Z,4.10
2022-08-12T09:56:05.727Z,3.67
2022-08-12T09:58:56.870Z,3.70
2022-08-12T10:01:35.140Z,3.58
2022-08-12T10:04:19.514Z,3.72
2022-08-12T10:07:40.922Z,3.88
2022-08-12T10:10:22.291Z,4.10
2022-08-12T10:13:33.864Z,4.00
2022-08-12T10:16:05.273Z,3.40
2022-08-12T10:18:36.043Z,3.55
2022-08-12T10:21:11.272Z,3.83
2022-08-12T10:23:45.976Z,3.40
2022-08-12T10:26:39.126Z,3.00
2022-08-12T10:30:38.701Z,3.28
2022-08-12T10:32:44.511Z,3.38
2022-08-12T10:35:18.620Z,3.30
2022-08-12T10:38:36.133Z,3.50
2022-08-12T10:40:54.651Z,4.20
2022-08-12T10:43:54.422Z,3.97
2022-08-12T10:46:31.333Z,4.85
2022-08-12T10:49:06.574Z,3.70
2022-08-12T10:52:03.592Z,3.92
2022-08-12T10:54:33.045Z,3.83
2022-08-12T10:57:05.487Z,3.55
2022-08-12T11:00:31.314Z,3.58
2022-08-12T11:04:26.565Z,3.58
2022-08-12T11:07:02.495Z,3.40
2022-08-12T11:08:37.848Z,3.35
2022-08-12T11:10:45.655Z,3.70
2022-08-12T11:13:13.164Z,3.40
2022-08-12T11:16:03.464Z,3.45
2022-08-12T11:18:29.108Z,2.90
2022-08-12T11:21:00.212Z,3.33
2022-08-12T11:23:37.223Z,3.13
2022-08-12T11:28:38.225Z,2.70
2022-08-12T11:31:13.329Z,2.80
2022-08-12T11:34:04.171Z,3.03
2022-08-12T11:36:33.409Z,3.03
2022-08-12T11:39:07.799Z,2.33
2022-08-12T11:41:40.276Z,2.50
2022-08-12T11:44:37.143Z,3.03
2022-08-12T11:46:59.045Z,3.03
2022-08-12T11:49:31.104Z,2.70
2022-08-12T11:52:00.119Z,3.00
2022-08-12T11:54:29.521Z,2.53
2022-08-12T11:57:02.481Z,3.10
2022-08-12T12:02:20.605Z,2.53
2022-08-12T12:04:52.106Z,3.30
2022-08-12T12:08:36.472Z,2.78
2022-08-12T12:10:15.977Z,2.70
2022-08-12T12:12:49.934Z,2.95
2022-08-12T12:15:25.299Z,3.15
2022-08-12T12:18:05.545Z,2.70
2022-08-12T12:20:34.182Z,2.85
2022-08-12T12:23:01.032Z,2.78
2022-08-12T12:26:06.994Z,2.58
2022-08-12T12:28:37.155Z,3.05
2022-08-12T12:31:14.571Z,2.90
2022-08-12T12:33:56.802Z,2.95
2022-08-12T12:36:29.681Z,3.00
2022-08-12T12:38:57.777Z,2.95
2022-08-12T12:42:41.620Z,2.78
2022-08-12T12:44:25.689Z,2.78
2022-08-12T12:46:57.542Z,2.60
2022-08-12T12:49:26.196Z,2.63
2022-08-12T12:52:18.556Z,2.83
2022-08-12T12:54:53.164Z,2.80
2022-08-12T12:57:35.818Z,2.80
2022-08-12T13:00:20.978Z,2.83
2022-08-12T13:02:57.063Z,2.72
2022-08-12T13:05:42.072Z,2.88
2022-08-12T13:08:28.628Z,2.63
2022-08-12T13:11:06.140Z,3.08
2022-08-12T13:14:10.377Z,2.70
2022-08-12T13:16:30.447Z,2.85
2022-08-12T13:19:01.645Z,2.80
2022-08-12T13:21:32.638Z,2.78
2022-08-12T13:24:02.607Z,3.15
2022-08-12T13:26:40.756Z,2.85
2022-08-12T13:29:11.675Z,2.55
2022-08-12T13:32:17.299Z,2.80
2022-08-12T13:34:34.537Z,2.20
2022-08-12T13:37:09.859Z,2.72
2022-08-12T13:39:39.573Z,2.55
2022-08-12T13:42:13.839Z,3.13
2022-08-12T13:44:42.078Z,2.90
2022-08-12T13:47:19.465Z,2.80
2022-08-12T13:49:55.085Z,2.70
2022-08-12T13:52:32.590Z,3.00
2022-08-12T13:55:06.394Z,2.67
2022-08-12T13:57:44.504Z,2.70
2022-08-12T14:00:15.015Z,2.80
2022-08-12T14:02:43.981Z,2.40
2022-08-12T14:05:37.558Z,2.63
2022-08-12T14:08:08.543Z,3.22
2022-08-12T14:10:46.370Z,2.50
2022-08-12T14:14:04.951Z,2.83
2022-08-12T14:16:15.398Z,2.80
2022-08-12T14:19:02.471Z,2.33
2022-08-12T14:21:37.509Z,2.80
2022-08-12T14:24:22.211Z,2.70
2022-08-12T14:26:54.812Z,2.67
2022-08-12T14:29:56.243Z,2.72
2022-08-12T14:38:17.306Z,2.55
2022-08-12T14:40:50.633Z,2.70
2022-08-12T14:43:17.545Z,2.60
2022-08-12T14:45:49.304Z,2.92
2022-08-12T14:48:24.406Z,2.83
2022-08-12T14:52:15.962Z,2.58
2022-08-12T14:59:57.112Z,2.75
2022-08-12T15:02:22.724Z,2.80
2022-08-12T15:04:59.728Z,2.75
2022-08-12T15:07:33.810Z,2.40
2022-08-12T15:10:25.425Z,2.45
2022-08-12T15:13:07.638Z,2.90
2022-08-12T15:15:44.073Z,2.53
2022-08-12T15:18:21.637Z,2.60
2022-08-12T15:20:52.732Z,2.60
2022-08-12T15:23:24.412Z,2.30
2022-08-12T15:26:02.963Z,2.33
2022-08-12T15:28:35.258Z,2.70
2022-08-12T15:33:57.934Z,2.95
2022-08-12T15:36:53.726Z,3.03
2022-08-12T15:39:16.821Z,2.65
2022-08-12T15:41:49.271Z,2.50
2022-08-12T15:44:37.811Z,2.67
2022-08-12T15:47:08.690Z,2.67
2022-08-12T15:49:55.139Z,2.13
2022-08-12T15:52:29.565Z,2.70
2022-08-12T15:57:41.566Z,2.47
2022-08-12T16:00:32.152Z,2.60
2022-08-12T16:03:05.440Z,2.33
2022-08-12T16:06:12.528Z,2.45
2022-08-12T16:08:29.924Z,2.08
2022-08-12T16:10:57.069Z,2.25
2022-08-12T16:13:32.377Z,2.45
2022-08-12T16:16:03.435Z,2.78
2022-08-12T16:18:38.324Z,2.40
2022-08-12T16:21:09.009Z,2.72
2022-08-12T16:23:51.761Z,2.40
2022-08-12T16:26:27.669Z,2.83
2022-08-12T16:29:14.502Z,2.35
2022-08-12T16:31:45.261Z,2.70
2022-08-12T16:34:25.803Z,2.88
2022-08-12T16:37:09.548Z,2.40
2022-08-12T16:40:00.025Z,2.50
2022-08-12T16:42:28.309Z,2.60
2022-08-12T16:44:59.838Z,2.70
2022-08-12T16:47:58.406Z,2.75
2022-08-12T16:50:20.117Z,3.20
2022-08-12T16:52:49.538Z,3.00
2022-08-12T16:55:18.885Z,2.35
2022-08-12T16:57:49.498Z,2.60
2022-08-12T17:00:25.048Z,2.70
2022-08-12T17:02:58.409Z,2.35
2022-08-12T17:05:31.304Z,2.05
2022-08-12T17:08:00.364Z,2.80
2022-08-12T17:10:35.477Z,3.05
2022-08-12T17:13:09.824Z,3.40
2022-08-12T17:15:50.413Z,2.70
2022-08-12T17:18:43.263Z,2.80
2022-08-12T17:21:07.599Z,2.45
2022-08-12T17:23:48.644Z,2.60
2022-08-12T17:26:22.156Z,3.30
2022-08-12T17:28:52.332Z,2.97
2022-08-12T17:31:59.672Z,2.70
2022-08-12T17:34:28.663Z,2.78
2022-08-12T17:36:58.763Z,3.10
2022-08-12T17:40:15.484Z,3.40
2022-08-12T17:42:32.482Z,2.53
2022-08-12T17:45:17.155Z,2.78
2022-08-12T17:48:01.730Z,2.65
2022-08-12T17:50:36.065Z,2.65
2022-08-12T17:53:04.643Z,2.40
2022-08-12T17:55:43.760Z,2.42
2022-08-12T17:58:16.812Z,2.80
2022-08-12T18:00:50.673Z,2.88
2022-08-12T18:04:04.397Z,2.60
2022-08-12T18:06:13.586Z,2.78
2022-08-12T18:08:54.323Z,2.38
2022-08-12T18:12:04.306Z,2.80
2022-08-12T18:14:31.186Z,2.17
2022-08-12T18:17:00.587Z,2.67
2022-08-12T18:20:03.926Z,2.80
2022-08-12T18:22:21.894Z,2.85
2022-08-12T18:25:00.780Z,2.60
2022-08-12T18:27:46.631Z,2.70
2022-08-12T18:30:29.047Z,2.45
2022-08-12T18:35:47.286Z,2.90
2022-08-12T18:38:27.490Z,2.60
2022-08-12T18:41:21.188Z,2.67
2022-08-12T18:44:00.305Z,3.17
2022-08-12T18:46:53.450Z,2.72
2022-08-12T18:49:39.308Z,2.75
2022-08-12T18:52:12.032Z,3.22
2022-08-12T18:54:48.031Z,3.15
2022-08-12T18:58:07.542Z,2.85
2022-08-12T19:00:21.467Z,2.88
2022-08-12T19:02:52.819Z,2.92
2022-08-12T19:05:52.927Z,2.53
2022-08-12T19:08:13.046Z,3.15
2022-08-12T19:10:50.180Z,2.65
2022-08-12T19:13:38.364Z,2.80
2022-08-12T19:16:11.416Z,2.95
2022-08-12T19:18:40.935Z,2.85
2022-08-12T19:21:15.982Z,3.03
2022-08-12T19:24:05.383Z,2.90
2022-08-12T19:26:35.041Z,3.08
2022-08-12T19:29:05.286Z,2.78
2022-08-12T19:31:44.668Z,2.70
2022-08-12T19:37:17.330Z,3.28
2022-08-12T19:40:07.850Z,3.30
2022-08-12T19:42:37.900Z,3.22
2022-08-12T19:45:12.297Z,3.03
2022-08-12T19:47:41.550Z,3.13
2022-08-12T19:50:11.085Z,3.05
2022-08-12T19:53:07.907Z,3.22
2022-08-12T19:55:39.923Z,3.58
2022-08-12T19:58:18.236Z,4.13
2022-08-12T20:00:53.074Z,4.05
2022-08-12T20:03:38.505Z,4.10
2022-08-12T20:06:16.231Z,3.45
2022-08-12T20:08:56.358Z,3.30
2022-08-12T20:12:14.048Z,3.80
2022-08-12T20:14:18.063Z,3.80
2022-08-12T20:16:54.472Z,3.40
2022-08-12T20:20:01.225Z,3.75
2022-08-12T20:22:29.466Z,3.50
2022-08-12T20:25:07.469Z,3.58
2022-08-12T20:28:05.550Z,3.50
2022-08-12T20:30:37.524Z,3.15
2022-08-12T20:33:23.262Z,3.50
2022-08-12T20:36:13.547Z,3.30
2022-08-12T20:38:51.115Z,3.60
2022-08-12T20:41:24.062Z,3.38
2022-08-12T20:43:59.177Z,3.33
2022-08-12T20:46:33.032Z,3.55
2022-08-12T20:49:14.815Z,3.13
2022-08-12T20:51:54.898Z,3.72
2022-08-12T20:54:32.685Z,3.30
2022-08-12T20:57:07.359Z,3.55
2022-08-12T20:59:38.671Z,3.45
2022-08-12T21:02:15.321Z,3.72
2022-08-12T21:05:02.869Z,3.42
2022-08-12T21:07:47.871Z,3.05
2022-08-12T21:10:21.000Z,3.30
2022-08-12T21:12:48.694Z,3.97
2022-08-12T21:15:23.139Z,3.85
2022-08-12T21:18:20.648Z,4.07
2022-08-12T21:20:54.374Z,4.60
2022-08-12T21:23:22.550Z,3.50
2022-08-12T21:25:56.124Z,4.32
2022-08-12T21:28:31.206Z,4.00
2022-08-12T21:32:34.459Z,4.22
2022-08-12T21:34:07.099Z,4.10
2022-08-12T21:36:39.927Z,4.60
2022-08-12T21:39:18.453Z,4.32
2022-08-12T21:41:51.469Z,4.13
2022-08-12T21:44:32.666Z,3.92
2022-08-12T21:47:21.755Z,3.65
2022-08-12T21:50:03.061Z,3.92
2022-08-12T21:52:40.725Z,4.05
2022-08-12T21:55:18.006Z,3.75
2022-08-12T21:57:53.718Z,3.40
2022-08-12T22:00:35.255Z,3.65
2022-08-12T22:04:03.845Z,3.80
2022-08-12T22:06:31.158Z,3.78
2022-08-12T22:09:17.191Z,3.60
2022-08-12T22:11:49.283Z,4.20
2022-08-12T22:14:28.320Z,3.65
2022-08-12T22:16:58.463Z,3.67
2022-08-12T22:19:26.720Z,3.83
2022-08-12T22:21:58.845Z,3.35
2022-08-12T22:24:32.512Z,3.55
2022-08-12T22:27:16.030Z,4.30
2022-08-12T22:30:16.438Z,3.40
2022-08-12T22:32:49.787Z,3.30
2022-08-12T22:35:55.416Z,3.28
2022-08-12T22:38:24.959Z,4.20
2022-08-12T22:41:01.037Z,3.90
2022-08-12T22:44:01.045Z,4.10
2022-08-12T22:46:51.797Z,3.90
2022-08-12T22:49:36.946Z,3.90
2022-08-12T22:52:23.106Z,3.75
2022-08-12T22:55:04.172Z,3.83
2022-08-12T22:57:53.426Z,4.20
2022-08-12T23:00:24.409Z,3.60
2022-08-12T23:03:00.495Z,3.47
2022-08-12T23:05:57.654Z,4.00
2022-08-12T23:08:30.019Z,3.70
2022-08-12T23:11:00.644Z,3.42
2022-08-12T23:13:54.828Z,3.83
2022-08-12T23:16:31.456Z,3.78
2022-08-12T23:19:09.498Z,4.22
2022-08-12T23:22:06.603Z,3.88
2022-08-12T23:24:36.883Z,4.60
2022-08-12T23:27:23.842Z,4.20
2022-08-12T23:30:18.345Z,4.13
2022-08-12T23:32:54.713Z,4.05
2022-08-12T23:35:45.310Z,3.85
2022-08-12T23:38:31.316Z,3.60
2022-08-12T23:41:03.556Z,3.42
2022-08-12T23:43:39.146Z,3.67
2022-08-12T23:46:11.239Z,3.45
2022-08-12T23:48:40.034Z,3.85
2022-08-12T23:51:23.113Z,3.85
2022-08-12T23:54:00.014Z,3.92
2022-08-12T23:56:32.806Z,3.80
2022-08-12T23:59:02.129Z,3.40
